Charter Quote
Worldwide +44-20-3874-8091 Call
Select Language Lang
SAFETY RELIABILITY EXPERIENCE

Malacky Airport (LZMC) - Jet Charter Services

AIRPORT INFORMATION
ICAOLZMC
LOCATIONMalacky, Slovakia
FACILITY TYPEAIRPORT
Runway Length (ft) Width (ft) Surface Type Elevation (ft)
20/02 8158 185 CON 678.55738

At Paramount Business Jets you can hire chartered private jets to and from Malacky Airport with as little as 4 hours of notice. All flights booked via Paramount Business Jets are operated by certified direct air carriers that meet and exceed the FAA part 135 and 121 protocol or a foreign equivalent safety authority. Furthermore, Paramount Business Jets subscribes to ARGUS for their third party safety checks of operators, aircraft, and crews prior each and every flight to and from Malacky Airport and worldwide.

  • Quote a trip using Malacky Airport or call us 24/7 - 365 days a year at +44-20-3874-8091.
Questions? Call +44-20-3874-8091

METAR Weather Data at Malacky Airport, LZMC

STATIONLZMC
OBSERVEDWed Jan 4, 03:00 UTC
NOWThu Jun 20, 04:55 UTC
AGE65377:55 hr ago
WINDS at 2 mph
VISIBILITYgreater than 7 miles
CLOUDSclear skies
TEMP41°F (5°C)
DEWPT36°F (2°C)
HUMIDITY81%
BAROMETER1015 hPa (29.97 in Hg)
METARLZMC 040300Z 19002KT CAVOK 05/02 Q1015

Call us on +44-20-3874-8091 (24 Hours) to Hire a Private Jet or Get a Quick Quote.

Find Airports Near any Location

Processing
...